Hlavní strana
METAR-TAF:

METAR-TAF

Letiště :

Uppsala, Švédsko

zeměpisná šířka: 59-53N, zeměpisná délka: 017-36E, výška: 21 m

Aktuální stav počasí

Zpráva byla vytvořena před 34 minutami, v 11:20 UTC
Jihozápadní vítr 3 kt, proměnlivý mezi jihojihozápadním a západním
Teplota 2°C
Vlhkost vzduchu 87%
Tlak 997 hPa
Viditelnost 10 km a více

METAR: ESCM 291120Z AUTO 23003KT 200V260 9999 BKN011/// OVC015/// 02/00 Q0997

Čas: 12:54 (11:54 UTC)


TAF: chybějící

Stav a předpovědi počasí z více než 4 000 letišť (zprávy METAR a TAF).

Červené a žluté tečky na mapě představují dostupné meteorologické stanice.

Když kurzor umístíte na tečku, zobrazí se název stanice.

Pak kliknutím zobrazíte stav a předpověď počasí.

Chcete-li změnit mapu, kliknutím na zelené tlačítko se znaménkem +mapu přiblížíte, kliknutím na zelené tlačítko se znaménkem – mapu oddálíte a kliknutím na zelené šipky přejdete na sousední mapy.


METAR-TAF: